sensor_id;sensor_type;location;lat;lon;timestamp;P1;durP1;ratioP1;P2;durP2;ratioP2
20069;SDS011;10195;50.868;4.382;2023-08-06T00:00:23;4.07;;;2.37;;
20069;SDS011;10195;50.868;4.382;2023-08-06T00:02:49;5.43;;;2.00;;
20069;SDS011;10195;50.868;4.382;2023-08-06T00:05:15;4.43;;;2.20;;
20069;SDS011;10195;50.868;4.382;2023-08-06T00:07:46;5.20;;;2.23;;
20069;SDS011;10195;50.868;4.382;2023-08-06T00:10:12;3.77;;;2.10;;
20069;SDS011;10195;50.868;4.382;2023-08-06T00:12:37;7.20;;;2.50;;
20069;SDS011;10195;50.868;4.382;2023-08-06T00:15:03;6.90;;;2.40;;
20069;SDS011;10195;50.868;4.382;2023-08-06T00:17:29;4.87;;;2.27;;
20069;SDS011;10195;50.868;4.382;2023-08-06T00:19:55;5.50;;;2.50;;
20069;SDS011;10195;50.868;4.382;2023-08-06T00:22:20;10.88;;;2.75;;
20069;SDS011;10195;50.868;4.382;2023-08-06T00:24:46;5.70;;;2.50;;
20069;SDS011;10195;50.868;4.382;2023-08-06T00:27:12;5.67;;;3.20;;
20069;SDS011;10195;50.868;4.382;2023-08-06T00:29:37;6.93;;;3.40;;
20069;SDS011;10195;50.868;4.382;2023-08-06T00:32:03;6.60;;;3.20;;
20069;SDS011;10195;50.868;4.382;2023-08-06T00:34:29;6.97;;;3.22;;
20069;SDS011;10195;50.868;4.382;2023-08-06T00:36:54;6.80;;;2.97;;
20069;SDS011;10195;50.868;4.382;2023-08-06T00:39:20;7.03;;;3.70;;
20069;SDS011;10195;50.868;4.382;2023-08-06T00:41:45;9.40;;;4.27;;
20069;SDS011;10195;50.868;4.382;2023-08-06T00:44:11;6.20;;;4.03;;
20069;SDS011;10195;50.868;4.382;2023-08-06T00:46:37;10.83;;;4.23;;
20069;SDS011;10195;50.868;4.382;2023-08-06T00:49:03;10.23;;;4.73;;
20069;SDS011;10195;50.868;4.382;2023-08-06T00:51:29;11.30;;;4.67;;
20069;SDS011;10195;50.868;4.382;2023-08-06T00:53:56;10.30;;;4.60;;
20069;SDS011;10195;50.868;4.382;2023-08-06T00:56:22;10.70;;;4.47;;
20069;SDS011;10195;50.868;4.382;2023-08-06T00:58:49;9.50;;;4.37;;
20069;SDS011;10195;50.868;4.382;2023-08-06T01:01:15;10.03;;;4.20;;
20069;SDS011;10195;50.868;4.382;2023-08-06T01:03:40;7.17;;;4.20;;
20069;SDS011;10195;50.868;4.382;2023-08-06T01:06:06;9.70;;;5.30;;
20069;SDS011;10195;50.868;4.382;2023-08-06T01:11:26;9.07;;;4.87;;
20069;SDS011;10195;50.868;4.382;2023-08-06T01:13:59;7.73;;;4.83;;
20069;SDS011;10195;50.868;4.382;2023-08-06T01:16:31;8.37;;;5.13;;
20069;SDS011;10195;50.868;4.382;2023-08-06T01:18:58;8.57;;;5.63;;
20069;SDS011;10195;50.868;4.382;2023-08-06T01:21:24;9.77;;;6.37;;
20069;SDS011;10195;50.868;4.382;2023-08-06T01:23:49;10.67;;;5.93;;
20069;SDS011;10195;50.868;4.382;2023-08-06T01:29:12;13.90;;;6.33;;
20069;SDS011;10195;50.868;4.382;2023-08-06T01:31:44;10.13;;;5.80;;
20069;SDS011;10195;50.868;4.382;2023-08-06T01:34:16;9.20;;;5.50;;
20069;SDS011;10195;50.868;4.382;2023-08-06T01:36:45;11.27;;;5.43;;
20069;SDS011;10195;50.868;4.382;2023-08-06T01:39:11;11.63;;;6.43;;
20069;SDS011;10195;50.868;4.382;2023-08-06T01:41:37;13.73;;;7.20;;
20069;SDS011;10195;50.868;4.382;2023-08-06T01:44:02;17.17;;;6.20;;
20069;SDS011;10195;50.868;4.382;2023-08-06T01:46:28;14.43;;;7.03;;
20069;SDS011;10195;50.868;4.382;2023-08-06T01:48:54;13.43;;;6.63;;
20069;SDS011;10195;50.868;4.382;2023-08-06T01:51:19;15.53;;;7.03;;
20069;SDS011;10195;50.868;4.382;2023-08-06T01:53:45;16.20;;;6.20;;
20069;SDS011;10195;50.868;4.382;2023-08-06T01:56:11;14.17;;;6.53;;
20069;SDS011;10195;50.868;4.382;2023-08-06T01:58:36;16.37;;;6.20;;
20069;SDS011;10195;50.868;4.382;2023-08-06T02:01:02;15.30;;;5.77;;
20069;SDS011;10195;50.868;4.382;2023-08-06T02:03:28;10.37;;;5.20;;
20069;SDS011;10195;50.868;4.382;2023-08-06T02:05:53;11.93;;;4.97;;
20069;SDS011;10195;50.868;4.382;2023-08-06T02:08:19;10.23;;;5.13;;
20069;SDS011;10195;50.868;4.382;2023-08-06T02:10:45;12.07;;;5.43;;
20069;SDS011;10195;50.868;4.382;2023-08-06T02:13:11;11.30;;;4.80;;
20069;SDS011;10195;50.868;4.382;2023-08-06T02:15:41;9.70;;;4.53;;
20069;SDS011;10195;50.868;4.382;2023-08-06T02:18:12;11.50;;;4.40;;
20069;SDS011;10195;50.868;4.382;2023-08-06T02:20:38;13.17;;;4.70;;
20069;SDS011;10195;50.868;4.382;2023-08-06T02:23:04;9.80;;;3.50;;
20069;SDS011;10195;50.868;4.382;2023-08-06T02:25:29;9.13;;;3.43;;
20069;SDS011;10195;50.868;4.382;2023-08-06T02:27:55;7.80;;;3.10;;
20069;SDS011;10195;50.868;4.382;2023-08-06T02:30:21;9.40;;;3.20;;
20069;SDS011;10195;50.868;4.382;2023-08-06T02:32:46;7.40;;;2.40;;
20069;SDS011;10195;50.868;4.382;2023-08-06T02:35:12;8.47;;;2.50;;
20069;SDS011;10195;50.868;4.382;2023-08-06T02:37:38;5.03;;;2.30;;
20069;SDS011;10195;50.868;4.382;2023-08-06T02:40:03;8.37;;;2.20;;
20069;SDS011;10195;50.868;4.382;2023-08-06T02:42:29;9.13;;;2.33;;
20069;SDS011;10195;50.868;4.382;2023-08-06T02:44:55;10.87;;;2.93;;
20069;SDS011;10195;50.868;4.382;2023-08-06T02:47:21;7.10;;;2.70;;
20069;SDS011;10195;50.868;4.382;2023-08-06T02:49:46;9.83;;;2.70;;
20069;SDS011;10195;50.868;4.382;2023-08-06T02:52:12;9.90;;;2.20;;
20069;SDS011;10195;50.868;4.382;2023-08-06T02:54:38;10.03;;;2.20;;
20069;SDS011;10195;50.868;4.382;2023-08-06T02:57:04;9.93;;;2.80;;
20069;SDS011;10195;50.868;4.382;2023-08-06T02:59:30;9.03;;;2.70;;
20069;SDS011;10195;50.868;4.382;2023-08-06T03:01:56;8.70;;;2.77;;
20069;SDS011;10195;50.868;4.382;2023-08-06T03:04:22;12.57;;;2.93;;
20069;SDS011;10195;50.868;4.382;2023-08-06T03:06:50;8.47;;;2.73;;
20069;SDS011;10195;50.868;4.382;2023-08-06T03:09:19;8.63;;;3.07;;
20069;SDS011;10195;50.868;4.382;2023-08-06T03:11:45;8.60;;;3.50;;
20069;SDS011;10195;50.868;4.382;2023-08-06T03:14:10;10.70;;;3.37;;
20069;SDS011;10195;50.868;4.382;2023-08-06T03:16:36;10.13;;;4.17;;
20069;SDS011;10195;50.868;4.382;2023-08-06T03:19:02;14.30;;;5.03;;
20069;SDS011;10195;50.868;4.382;2023-08-06T03:21:27;18.57;;;6.80;;
20069;SDS011;10195;50.868;4.382;2023-08-06T03:23:53;12.67;;;6.47;;
20069;SDS011;10195;50.868;4.382;2023-08-06T03:26:18;13.93;;;7.90;;
20069;SDS011;10195;50.868;4.382;2023-08-06T03:28:44;16.30;;;8.80;;
20069;SDS011;10195;50.868;4.382;2023-08-06T03:31:10;21.57;;;10.50;;
20069;SDS011;10195;50.868;4.382;2023-08-06T03:33:36;20.37;;;11.07;;
20069;SDS011;10195;50.868;4.382;2023-08-06T03:36:01;17.60;;;10.80;;
20069;SDS011;10195;50.868;4.382;2023-08-06T03:38:27;26.63;;;12.13;;
20069;SDS011;10195;50.868;4.382;2023-08-06T03:40:53;18.70;;;12.13;;
20069;SDS011;10195;50.868;4.382;2023-08-06T03:43:19;20.97;;;11.13;;
20069;SDS011;10195;50.868;4.382;2023-08-06T03:45:44;16.40;;;10.20;;
20069;SDS011;10195;50.868;4.382;2023-08-06T03:48:10;13.60;;;9.17;;
20069;SDS011;10195;50.868;4.382;2023-08-06T03:50:36;13.30;;;8.40;;
20069;SDS011;10195;50.868;4.382;2023-08-06T03:53:01;6.83;;;5.53;;
20069;SDS011;10195;50.868;4.382;2023-08-06T03:55:27;7.30;;;5.57;;
20069;SDS011;10195;50.868;4.382;2023-08-06T03:57:53;9.67;;;5.03;;
20069;SDS011;10195;50.868;4.382;2023-08-06T04:00:19;6.00;;;4.97;;
20069;SDS011;10195;50.868;4.382;2023-08-06T04:02:44;5.70;;;4.50;;
20069;SDS011;10195;50.868;4.382;2023-08-06T04:05:10;5.10;;;3.13;;
20069;SDS011;10195;50.868;4.382;2023-08-06T04:07:36;2.13;;;1.50;;
20069;SDS011;10195;50.868;4.382;2023-08-06T04:10:03;4.50;;;2.00;;
20069;SDS011;10195;50.868;4.382;2023-08-06T04:12:29;1.83;;;1.57;;
20069;SDS011;10195;50.868;4.382;2023-08-06T04:14:57;2.67;;;1.20;;
20069;SDS011;10195;50.868;4.382;2023-08-06T04:17:23;1.57;;;1.07;;
20069;SDS011;10195;50.868;4.382;2023-08-06T04:19:52;1.63;;;0.97;;
20069;SDS011;10195;50.868;4.382;2023-08-06T04:22:19;1.30;;;0.93;;
20069;SDS011;10195;50.868;4.382;2023-08-06T04:24:46;1.27;;;1.17;;
20069;SDS011;10195;50.868;4.382;2023-08-06T04:27:12;0.90;;;0.90;;
20069;SDS011;10195;50.868;4.382;2023-08-06T04:29:39;1.40;;;1.30;;
20069;SDS011;10195;50.868;4.382;2023-08-06T04:32:05;3.07;;;1.60;;
20069;SDS011;10195;50.868;4.382;2023-08-06T04:34:32;3.50;;;1.87;;
20069;SDS011;10195;50.868;4.382;2023-08-06T04:36:58;10.40;;;1.67;;
20069;SDS011;10195;50.868;4.382;2023-08-06T04:39:24;4.37;;;1.90;;
20069;SDS011;10195;50.868;4.382;2023-08-06T04:41:50;4.53;;;1.37;;
20069;SDS011;10195;50.868;4.382;2023-08-06T04:44:16;1.77;;;1.53;;
20069;SDS011;10195;50.868;4.382;2023-08-06T04:46:41;3.83;;;1.57;;
20069;SDS011;10195;50.868;4.382;2023-08-06T04:49:07;3.80;;;2.03;;
20069;SDS011;10195;50.868;4.382;2023-08-06T04:51:33;4.63;;;2.07;;
20069;SDS011;10195;50.868;4.382;2023-08-06T04:53:58;3.50;;;2.20;;
20069;SDS011;10195;50.868;4.382;2023-08-06T04:56:24;7.70;;;2.93;;
20069;SDS011;10195;50.868;4.382;2023-08-06T04:58:50;6.33;;;2.70;;
20069;SDS011;10195;50.868;4.382;2023-08-06T05:01:16;4.53;;;2.90;;
20069;SDS011;10195;50.868;4.382;2023-08-06T05:03:41;1.80;;;1.13;;
20069;SDS011;10195;50.868;4.382;2023-08-06T05:06:07;10.53;;;3.43;;
20069;SDS011;10195;50.868;4.382;2023-08-06T05:08:33;3.63;;;2.90;;
20069;SDS011;10195;50.868;4.382;2023-08-06T05:10:58;3.23;;;2.60;;
20069;SDS011;10195;50.868;4.382;2023-08-06T05:13:24;4.37;;;2.97;;
20069;SDS011;10195;50.868;4.382;2023-08-06T05:15:50;7.73;;;3.20;;
20069;SDS011;10195;50.868;4.382;2023-08-06T05:18:18;8.10;;;3.90;;
20069;SDS011;10195;50.868;4.382;2023-08-06T05:20:44;6.43;;;3.10;;
20069;SDS011;10195;50.868;4.382;2023-08-06T05:23:10;7.27;;;3.13;;
20069;SDS011;10195;50.868;4.382;2023-08-06T05:25:36;6.33;;;2.40;;
20069;SDS011;10195;50.868;4.382;2023-08-06T05:28:02;5.77;;;2.70;;
20069;SDS011;10195;50.868;4.382;2023-08-06T05:30:28;8.50;;;3.40;;
20069;SDS011;10195;50.868;4.382;2023-08-06T05:32:54;7.10;;;4.00;;
20069;SDS011;10195;50.868;4.382;2023-08-06T05:35:20;8.07;;;2.60;;
20069;SDS011;10195;50.868;4.382;2023-08-06T05:37:46;13.07;;;3.60;;
20069;SDS011;10195;50.868;4.382;2023-08-06T05:40:12;12.23;;;3.50;;
20069;SDS011;10195;50.868;4.382;2023-08-06T05:42:39;16.53;;;4.80;;
20069;SDS011;10195;50.868;4.382;2023-08-06T05:45:05;9.20;;;4.40;;
20069;SDS011;10195;50.868;4.382;2023-08-06T05:47:31;8.43;;;3.97;;
20069;SDS011;10195;50.868;4.382;2023-08-06T05:49:56;10.63;;;4.10;;
20069;SDS011;10195;50.868;4.382;2023-08-06T05:52:22;9.80;;;2.90;;
20069;SDS011;10195;50.868;4.382;2023-08-06T05:54:48;8.43;;;4.27;;
20069;SDS011;10195;50.868;4.382;2023-08-06T05:57:13;6.67;;;2.93;;
20069;SDS011;10195;50.868;4.382;2023-08-06T05:59:40;10.93;;;3.17;;
20069;SDS011;10195;50.868;4.382;2023-08-06T06:02:06;2.93;;;1.77;;
20069;SDS011;10195;50.868;4.382;2023-08-06T06:04:31;7.67;;;2.87;;
20069;SDS011;10195;50.868;4.382;2023-08-06T06:06:57;7.80;;;3.17;;
20069;SDS011;10195;50.868;4.382;2023-08-06T06:09:23;7.10;;;3.03;;
20069;SDS011;10195;50.868;4.382;2023-08-06T06:11:49;11.10;;;4.07;;
20069;SDS011;10195;50.868;4.382;2023-08-06T06:14:15;15.07;;;3.40;;
20069;SDS011;10195;50.868;4.382;2023-08-06T06:16:42;8.57;;;3.67;;
20069;SDS011;10195;50.868;4.382;2023-08-06T06:19:07;11.27;;;3.20;;
20069;SDS011;10195;50.868;4.382;2023-08-06T06:21:33;13.90;;;3.67;;
20069;SDS011;10195;50.868;4.382;2023-08-06T06:23:58;8.23;;;4.07;;
20069;SDS011;10195;50.868;4.382;2023-08-06T06:26:24;8.57;;;3.40;;
20069;SDS011;10195;50.868;4.382;2023-08-06T06:28:50;12.77;;;4.27;;
20069;SDS011;10195;50.868;4.382;2023-08-06T06:31:15;8.00;;;3.90;;
20069;SDS011;10195;50.868;4.382;2023-08-06T06:33:41;12.17;;;4.30;;
20069;SDS011;10195;50.868;4.382;2023-08-06T06:36:07;7.83;;;3.60;;
20069;SDS011;10195;50.868;4.382;2023-08-06T06:38:33;10.33;;;4.67;;
20069;SDS011;10195;50.868;4.382;2023-08-06T06:40:59;8.93;;;3.70;;
20069;SDS011;10195;50.868;4.382;2023-08-06T06:43:25;9.47;;;3.80;;
20069;SDS011;10195;50.868;4.382;2023-08-06T06:45:57;14.20;;;4.20;;
20069;SDS011;10195;50.868;4.382;2023-08-06T06:48:26;4.43;;;2.33;;
20069;SDS011;10195;50.868;4.382;2023-08-06T06:50:53;12.73;;;4.20;;
20069;SDS011;10195;50.868;4.382;2023-08-06T06:53:19;15.77;;;3.97;;
20069;SDS011;10195;50.868;4.382;2023-08-06T06:55:44;12.40;;;4.10;;
20069;SDS011;10195;50.868;4.382;2023-08-06T06:58:14;10.57;;;4.17;;
20069;SDS011;10195;50.868;4.382;2023-08-06T07:00:40;9.30;;;3.00;;
20069;SDS011;10195;50.868;4.382;2023-08-06T07:03:06;10.83;;;2.87;;
20069;SDS011;10195;50.868;4.382;2023-08-06T07:05:32;7.57;;;3.13;;
20069;SDS011;10195;50.868;4.382;2023-08-06T07:07:58;12.23;;;3.47;;
20069;SDS011;10195;50.868;4.382;2023-08-06T07:10:23;7.67;;;2.97;;
20069;SDS011;10195;50.868;4.382;2023-08-06T07:12:49;7.17;;;2.93;;
20069;SDS011;10195;50.868;4.382;2023-08-06T07:15:14;10.57;;;3.23;;
20069;SDS011;10195;50.868;4.382;2023-08-06T07:17:42;9.60;;;2.40;;
20069;SDS011;10195;50.868;4.382;2023-08-06T07:20:08;7.97;;;2.77;;
20069;SDS011;10195;50.868;4.382;2023-08-06T07:22:34;7.73;;;2.53;;
20069;SDS011;10195;50.868;4.382;2023-08-06T07:25:00;5.53;;;1.63;;
20069;SDS011;10195;50.868;4.382;2023-08-06T07:27:25;13.87;;;2.63;;
20069;SDS011;10195;50.868;4.382;2023-08-06T07:29:51;8.77;;;1.90;;
20069;SDS011;10195;50.868;4.382;2023-08-06T07:32:17;6.03;;;1.90;;
20069;SDS011;10195;50.868;4.382;2023-08-06T07:34:42;8.10;;;2.30;;
20069;SDS011;10195;50.868;4.382;2023-08-06T07:37:08;5.47;;;0.90;;
20069;SDS011;10195;50.868;4.382;2023-08-06T07:39:33;7.40;;;1.47;;
20069;SDS011;10195;50.868;4.382;2023-08-06T07:41:59;8.30;;;1.57;;
20069;SDS011;10195;50.868;4.382;2023-08-06T07:44:27;10.17;;;2.50;;
20069;SDS011;10195;50.868;4.382;2023-08-06T07:46:53;13.43;;;2.27;;
20069;SDS011;10195;50.868;4.382;2023-08-06T07:49:18;15.20;;;2.50;;
20069;SDS011;10195;50.868;4.382;2023-08-06T07:51:44;12.33;;;1.90;;
20069;SDS011;10195;50.868;4.382;2023-08-06T07:54:09;9.27;;;2.23;;
20069;SDS011;10195;50.868;4.382;2023-08-06T07:56:35;9.07;;;2.50;;
20069;SDS011;10195;50.868;4.382;2023-08-06T07:59:01;7.37;;;1.77;;
20069;SDS011;10195;50.868;4.382;2023-08-06T08:01:27;10.03;;;2.00;;
20069;SDS011;10195;50.868;4.382;2023-08-06T08:03:53;5.67;;;1.63;;
20069;SDS011;10195;50.868;4.382;2023-08-06T08:06:18;9.20;;;1.77;;
20069;SDS011;10195;50.868;4.382;2023-08-06T08:08:44;11.40;;;1.90;;
20069;SDS011;10195;50.868;4.382;2023-08-06T08:11:10;11.10;;;1.90;;
20069;SDS011;10195;50.868;4.382;2023-08-06T08:13:35;8.53;;;1.83;;
20069;SDS011;10195;50.868;4.382;2023-08-06T08:16:01;9.90;;;2.23;;
20069;SDS011;10195;50.868;4.382;2023-08-06T08:18:27;14.33;;;2.53;;
20069;SDS011;10195;50.868;4.382;2023-08-06T08:20:53;9.57;;;2.10;;
20069;SDS011;10195;50.868;4.382;2023-08-06T08:23:18;9.23;;;2.10;;
20069;SDS011;10195;50.868;4.382;2023-08-06T08:25:44;9.70;;;1.90;;
20069;SDS011;10195;50.868;4.382;2023-08-06T08:28:10;10.90;;;1.80;;
20069;SDS011;10195;50.868;4.382;2023-08-06T08:30:35;5.03;;;1.90;;
20069;SDS011;10195;50.868;4.382;2023-08-06T08:33:01;8.23;;;1.93;;
20069;SDS011;10195;50.868;4.382;2023-08-06T08:35:26;18.73;;;2.57;;
20069;SDS011;10195;50.868;4.382;2023-08-06T08:37:52;14.47;;;2.50;;
20069;SDS011;10195;50.868;4.382;2023-08-06T08:40:19;8.23;;;2.13;;
20069;SDS011;10195;50.868;4.382;2023-08-06T08:42:48;9.03;;;1.93;;
20069;SDS011;10195;50.868;4.382;2023-08-06T08:45:14;10.37;;;2.27;;
20069;SDS011;10195;50.868;4.382;2023-08-06T08:47:41;6.57;;;1.90;;
20069;SDS011;10195;50.868;4.382;2023-08-06T08:50:08;9.73;;;2.40;;
20069;SDS011;10195;50.868;4.382;2023-08-06T08:52:35;6.80;;;2.00;;
20069;SDS011;10195;50.868;4.382;2023-08-06T08:55:03;14.43;;;2.60;;
20069;SDS011;10195;50.868;4.382;2023-08-06T08:57:29;5.00;;;1.07;;
20069;SDS011;10195;50.868;4.382;2023-08-06T08:59:54;6.73;;;1.97;;
20069;SDS011;10195;50.868;4.382;2023-08-06T09:02:21;10.37;;;2.13;;
20069;SDS011;10195;50.868;4.382;2023-08-06T09:04:47;6.57;;;2.10;;
20069;SDS011;10195;50.868;4.382;2023-08-06T09:07:16;7.00;;;1.90;;
20069;SDS011;10195;50.868;4.382;2023-08-06T09:09:45;8.40;;;1.90;;
20069;SDS011;10195;50.868;4.382;2023-08-06T09:12:15;8.87;;;1.70;;
20069;SDS011;10195;50.868;4.382;2023-08-06T09:14:42;8.37;;;2.20;;
20069;SDS011;10195;50.868;4.382;2023-08-06T09:17:08;6.13;;;2.40;;
20069;SDS011;10195;50.868;4.382;2023-08-06T09:19:35;6.83;;;1.90;;
20069;SDS011;10195;50.868;4.382;2023-08-06T09:22:01;8.67;;;2.03;;
20069;SDS011;10195;50.868;4.382;2023-08-06T09:24:27;14.53;;;3.30;;
20069;SDS011;10195;50.868;4.382;2023-08-06T09:26:53;10.03;;;2.43;;
20069;SDS011;10195;50.868;4.382;2023-08-06T09:29:19;8.57;;;2.00;;
20069;SDS011;10195;50.868;4.382;2023-08-06T09:31:46;9.90;;;2.40;;
20069;SDS011;10195;50.868;4.382;2023-08-06T09:34:17;9.50;;;1.33;;
20069;SDS011;10195;50.868;4.382;2023-08-06T09:36:47;6.33;;;2.20;;
20069;SDS011;10195;50.868;4.382;2023-08-06T09:39:19;4.60;;;1.83;;
20069;SDS011;10195;50.868;4.382;2023-08-06T09:41:47;11.63;;;2.20;;
20069;SDS011;10195;50.868;4.382;2023-08-06T09:44:20;7.00;;;2.00;;
20069;SDS011;10195;50.868;4.382;2023-08-06T09:47:08;10.60;;;2.40;;
20069;SDS011;10195;50.868;4.382;2023-08-06T09:51:59;14.10;;;2.17;;
20069;SDS011;10195;50.868;4.382;2023-08-06T09:54:26;9.10;;;2.13;;
20069;SDS011;10195;50.868;4.382;2023-08-06T09:56:52;12.93;;;2.43;;
20069;SDS011;10195;50.868;4.382;2023-08-06T09:59:19;7.23;;;2.03;;
20069;SDS011;10195;50.868;4.382;2023-08-06T10:01:45;12.97;;;3.13;;
20069;SDS011;10195;50.868;4.382;2023-08-06T10:04:12;11.17;;;2.70;;
20069;SDS011;10195;50.868;4.382;2023-08-06T10:06:41;12.73;;;2.50;;
20069;SDS011;10195;50.868;4.382;2023-08-06T10:09:08;8.87;;;2.70;;
20069;SDS011;10195;50.868;4.382;2023-08-06T10:11:34;8.93;;;2.13;;
20069;SDS011;10195;50.868;4.382;2023-08-06T10:14:04;8.60;;;2.20;;
20069;SDS011;10195;50.868;4.382;2023-08-06T10:16:37;14.07;;;2.77;;
20069;SDS011;10195;50.868;4.382;2023-08-06T10:19:05;12.87;;;2.93;;
20069;SDS011;10195;50.868;4.382;2023-08-06T10:21:34;12.20;;;2.00;;
20069;SDS011;10195;50.868;4.382;2023-08-06T10:24:00;11.50;;;2.37;;
20069;SDS011;10195;50.868;4.382;2023-08-06T10:26:27;10.00;;;2.37;;
20069;SDS011;10195;50.868;4.382;2023-08-06T10:28:54;9.63;;;1.47;;
20069;SDS011;10195;50.868;4.382;2023-08-06T10:31:20;9.87;;;1.77;;
20069;SDS011;10195;50.868;4.382;2023-08-06T10:34:24;10.17;;;1.83;;
20069;SDS011;10195;50.868;4.382;2023-08-06T10:36:49;10.57;;;2.27;;
20069;SDS011;10195;50.868;4.382;2023-08-06T10:39:15;12.07;;;1.97;;
20069;SDS011;10195;50.868;4.382;2023-08-06T10:41:43;9.90;;;2.07;;
20069;SDS011;10195;50.868;4.382;2023-08-06T10:44:09;8.47;;;2.27;;
20069;SDS011;10195;50.868;4.382;2023-08-06T10:46:37;8.60;;;2.23;;
20069;SDS011;10195;50.868;4.382;2023-08-06T10:49:03;13.23;;;2.50;;
20069;SDS011;10195;50.868;4.382;2023-08-06T10:51:29;7.40;;;2.20;;
20069;SDS011;10195;50.868;4.382;2023-08-06T10:53:55;5.33;;;2.00;;
20069;SDS011;10195;50.868;4.382;2023-08-06T10:56:26;9.67;;;2.40;;
20069;SDS011;10195;50.868;4.382;2023-08-06T10:58:55;10.43;;;2.93;;
20069;SDS011;10195;50.868;4.382;2023-08-06T11:01:22;11.30;;;3.00;;
20069;SDS011;10195;50.868;4.382;2023-08-06T11:03:49;11.13;;;3.17;;
20069;SDS011;10195;50.868;4.382;2023-08-06T11:06:19;13.10;;;2.93;;
20069;SDS011;10195;50.868;4.382;2023-08-06T11:08:52;13.00;;;3.00;;
20069;SDS011;10195;50.868;4.382;2023-08-06T11:11:19;9.97;;;2.77;;
20069;SDS011;10195;50.868;4.382;2023-08-06T11:13:47;8.23;;;2.57;;
20069;SDS011;10195;50.868;4.382;2023-08-06T11:16:17;12.33;;;3.43;;
20069;SDS011;10195;50.868;4.382;2023-08-06T11:18:44;19.90;;;3.30;;
20069;SDS011;10195;50.868;4.382;2023-08-06T11:21:10;9.67;;;2.60;;
20069;SDS011;10195;50.868;4.382;2023-08-06T11:23:39;9.00;;;2.80;;
20069;SDS011;10195;50.868;4.382;2023-08-06T11:26:05;14.77;;;3.10;;
20069;SDS011;10195;50.868;4.382;2023-08-06T11:28:32;7.13;;;2.70;;
20069;SDS011;10195;50.868;4.382;2023-08-06T11:30:58;7.50;;;1.90;;
20069;SDS011;10195;50.868;4.382;2023-08-06T11:33:26;7.03;;;1.60;;
20069;SDS011;10195;50.868;4.382;2023-08-06T11:35:56;11.97;;;2.70;;
20069;SDS011;10195;50.868;4.382;2023-08-06T11:38:29;12.90;;;2.60;;
20069;SDS011;10195;50.868;4.382;2023-08-06T11:40:55;12.13;;;2.33;;
20069;SDS011;10195;50.868;4.382;2023-08-06T11:43:21;11.23;;;2.20;;
20069;SDS011;10195;50.868;4.382;2023-08-06T11:45:48;10.00;;;2.67;;
20069;SDS011;10195;50.868;4.382;2023-08-06T11:48:14;12.00;;;2.53;;
20069;SDS011;10195;50.868;4.382;2023-08-06T11:50:39;6.97;;;1.73;;
20069;SDS011;10195;50.868;4.382;2023-08-06T11:53:05;9.77;;;1.87;;
20069;SDS011;10195;50.868;4.382;2023-08-06T11:55:31;4.77;;;1.90;;
20069;SDS011;10195;50.868;4.382;2023-08-06T11:57:58;7.60;;;1.57;;
20069;SDS011;10195;50.868;4.382;2023-08-06T12:00:29;6.53;;;1.80;;
20069;SDS011;10195;50.868;4.382;2023-08-06T12:02:55;9.77;;;1.53;;
20069;SDS011;10195;50.868;4.382;2023-08-06T12:05:22;7.27;;;1.70;;
20069;SDS011;10195;50.868;4.382;2023-08-06T12:07:49;7.97;;;2.10;;
20069;SDS011;10195;50.868;4.382;2023-08-06T12:10:24;3.90;;;1.80;;
20069;SDS011;10195;50.868;4.382;2023-08-06T12:12:50;8.27;;;2.10;;
20069;SDS011;10195;50.868;4.382;2023-08-06T12:15:16;8.40;;;1.83;;
20069;SDS011;10195;50.868;4.382;2023-08-06T12:17:42;6.60;;;1.87;;
20069;SDS011;10195;50.868;4.382;2023-08-06T12:20:09;6.80;;;1.73;;
20069;SDS011;10195;50.868;4.382;2023-08-06T12:22:35;9.57;;;2.47;;
20069;SDS011;10195;50.868;4.382;2023-08-06T12:25:02;8.53;;;2.00;;
20069;SDS011;10195;50.868;4.382;2023-08-06T12:27:31;13.60;;;2.67;;
20069;SDS011;10195;50.868;4.382;2023-08-06T12:29:57;9.00;;;2.77;;
20069;SDS011;10195;50.868;4.382;2023-08-06T12:32:23;13.53;;;2.33;;
20069;SDS011;10195;50.868;4.382;2023-08-06T12:34:48;9.97;;;2.27;;
20069;SDS011;10195;50.868;4.382;2023-08-06T12:37:14;8.20;;;2.30;;
20069;SDS011;10195;50.868;4.382;2023-08-06T12:39:39;8.27;;;2.10;;
20069;SDS011;10195;50.868;4.382;2023-08-06T12:42:05;10.90;;;2.50;;
20069;SDS011;10195;50.868;4.382;2023-08-06T12:44:32;10.37;;;2.40;;
20069;SDS011;10195;50.868;4.382;2023-08-06T12:46:58;10.23;;;2.37;;
20069;SDS011;10195;50.868;4.382;2023-08-06T12:49:24;11.37;;;2.77;;
20069;SDS011;10195;50.868;4.382;2023-08-06T12:51:52;10.30;;;2.40;;
20069;SDS011;10195;50.868;4.382;2023-08-06T12:54:18;10.83;;;2.37;;
20069;SDS011;10195;50.868;4.382;2023-08-06T12:56:46;12.63;;;3.10;;
20069;SDS011;10195;50.868;4.382;2023-08-06T12:59:13;8.27;;;2.00;;
20069;SDS011;10195;50.868;4.382;2023-08-06T13:01:40;13.43;;;2.40;;
20069;SDS011;10195;50.868;4.382;2023-08-06T13:04:06;15.13;;;3.13;;
20069;SDS011;10195;50.868;4.382;2023-08-06T13:06:32;9.90;;;2.03;;
20069;SDS011;10195;50.868;4.382;2023-08-06T13:09:11;6.47;;;2.10;;
20069;SDS011;10195;50.868;4.382;2023-08-06T13:11:37;9.63;;;2.67;;
20069;SDS011;10195;50.868;4.382;2023-08-06T13:14:05;13.00;;;2.40;;
20069;SDS011;10195;50.868;4.382;2023-08-06T13:16:39;11.77;;;3.07;;
20069;SDS011;10195;50.868;4.382;2023-08-06T13:19:06;16.67;;;2.97;;
20069;SDS011;10195;50.868;4.382;2023-08-06T13:21:33;9.17;;;1.93;;
20069;SDS011;10195;50.868;4.382;2023-08-06T13:24:01;10.80;;;3.20;;
20069;SDS011;10195;50.868;4.382;2023-08-06T13:26:28;14.13;;;2.80;;
20069;SDS011;10195;50.868;4.382;2023-08-06T13:28:55;8.47;;;2.90;;
20069;SDS011;10195;50.868;4.382;2023-08-06T13:31:21;9.53;;;2.50;;
20069;SDS011;10195;50.868;4.382;2023-08-06T13:33:47;10.07;;;2.80;;
20069;SDS011;10195;50.868;4.382;2023-08-06T13:36:14;7.20;;;2.27;;
20069;SDS011;10195;50.868;4.382;2023-08-06T13:38:43;12.07;;;2.43;;
20069;SDS011;10195;50.868;4.382;2023-08-06T13:41:09;9.30;;;2.27;;
20069;SDS011;10195;50.868;4.382;2023-08-06T13:43:34;10.27;;;2.50;;
20069;SDS011;10195;50.868;4.382;2023-08-06T13:46:00;6.57;;;1.87;;
20069;SDS011;10195;50.868;4.382;2023-08-06T13:48:26;19.93;;;2.93;;
20069;SDS011;10195;50.868;4.382;2023-08-06T13:50:52;5.47;;;1.60;;
20069;SDS011;10195;50.868;4.382;2023-08-06T13:53:17;6.77;;;1.83;;
20069;SDS011;10195;50.868;4.382;2023-08-06T13:55:43;6.77;;;1.67;;
20069;SDS011;10195;50.868;4.382;2023-08-06T13:58:08;4.63;;;1.53;;
20069;SDS011;10195;50.868;4.382;2023-08-06T14:00:35;10.40;;;2.17;;
20069;SDS011;10195;50.868;4.382;2023-08-06T14:03:02;9.50;;;2.17;;
20069;SDS011;10195;50.868;4.382;2023-08-06T14:05:28;9.00;;;2.27;;
20069;SDS011;10195;50.868;4.382;2023-08-06T14:07:53;3.93;;;1.30;;
20069;SDS011;10195;50.868;4.382;2023-08-06T14:10:19;11.53;;;1.50;;
20069;SDS011;10195;50.868;4.382;2023-08-06T14:12:45;5.53;;;1.60;;
20069;SDS011;10195;50.868;4.382;2023-08-06T14:15:11;10.97;;;2.53;;
20069;SDS011;10195;50.868;4.382;2023-08-06T14:17:37;5.73;;;1.63;;
20069;SDS011;10195;50.868;4.382;2023-08-06T14:20:03;6.03;;;1.70;;
20069;SDS011;10195;50.868;4.382;2023-08-06T14:22:30;11.57;;;2.13;;
20069;SDS011;10195;50.868;4.382;2023-08-06T14:24:56;7.87;;;1.93;;
20069;SDS011;10195;50.868;4.382;2023-08-06T14:27:24;7.33;;;1.83;;
20069;SDS011;10195;50.868;4.382;2023-08-06T14:29:50;15.63;;;2.10;;
20069;SDS011;10195;50.868;4.382;2023-08-06T14:32:16;9.90;;;2.70;;
20069;SDS011;10195;50.868;4.382;2023-08-06T14:34:43;8.57;;;2.50;;
20069;SDS011;10195;50.868;4.382;2023-08-06T14:37:09;8.53;;;2.40;;
20069;SDS011;10195;50.868;4.382;2023-08-06T14:39:35;14.63;;;2.97;;
20069;SDS011;10195;50.868;4.382;2023-08-06T14:42:01;8.13;;;2.20;;
20069;SDS011;10195;50.868;4.382;2023-08-06T14:44:27;10.57;;;2.47;;
20069;SDS011;10195;50.868;4.382;2023-08-06T14:46:53;9.53;;;2.07;;